sensor_id;sensor_type;location;lat;lon;timestamp;P1;durP1;ratioP1;P2;durP2;ratioP2
46745;SDS011;32493;50.514;9.678;2023-02-08T00:00:36;18.65;;;8.20;;
46745;SDS011;32493;50.514;9.678;2023-02-08T00:02:42;14.93;;;7.03;;
46745;SDS011;32493;50.514;9.678;2023-02-08T00:04:50;16.77;;;7.40;;
46745;SDS011;32493;50.514;9.678;2023-02-08T00:06:55;16.67;;;7.97;;
46745;SDS011;32493;50.514;9.678;2023-02-08T00:09:01;16.85;;;7.47;;
46745;SDS011;32493;50.514;9.678;2023-02-08T00:11:07;17.73;;;8.10;;
46745;SDS011;32493;50.514;9.678;2023-02-08T00:13:13;17.55;;;8.15;;
46745;SDS011;32493;50.514;9.678;2023-02-08T00:15:18;18.30;;;8.18;;
46745;SDS011;32493;50.514;9.678;2023-02-08T00:17:27;16.35;;;8.05;;
46745;SDS011;32493;50.514;9.678;2023-02-08T00:19:32;14.77;;;6.90;;
46745;SDS011;32493;50.514;9.678;2023-02-08T00:21:40;15.40;;;7.38;;
46745;SDS011;32493;50.514;9.678;2023-02-08T00:23:45;14.75;;;7.32;;
46745;SDS011;32493;50.514;9.678;2023-02-08T00:25:50;18.77;;;7.80;;
46745;SDS011;32493;50.514;9.678;2023-02-08T00:27:56;15.18;;;7.53;;
46745;SDS011;32493;50.514;9.678;2023-02-08T00:30:05;16.13;;;7.18;;
46745;SDS011;32493;50.514;9.678;2023-02-08T00:32:12;15.50;;;7.45;;
46745;SDS011;32493;50.514;9.678;2023-02-08T00:34:17;13.50;;;6.90;;
46745;SDS011;32493;50.514;9.678;2023-02-08T00:36:24;17.75;;;6.93;;
46745;SDS011;32493;50.514;9.678;2023-02-08T00:38:32;18.20;;;7.35;;
46745;SDS011;32493;50.514;9.678;2023-02-08T00:40:39;16.23;;;7.22;;
46745;SDS011;32493;50.514;9.678;2023-02-08T00:42:44;14.65;;;7.55;;
46745;SDS011;32493;50.514;9.678;2023-02-08T00:44:49;15.70;;;6.85;;
46745;SDS011;32493;50.514;9.678;2023-02-08T00:46:54;21.80;;;8.18;;
46745;SDS011;32493;50.514;9.678;2023-02-08T00:48:59;13.50;;;6.93;;
46745;SDS011;32493;50.514;9.678;2023-02-08T00:51:05;15.23;;;6.63;;
46745;SDS011;32493;50.514;9.678;2023-02-08T00:53:13;15.23;;;7.18;;
46745;SDS011;32493;50.514;9.678;2023-02-08T00:55:21;17.60;;;7.57;;
46745;SDS011;32493;50.514;9.678;2023-02-08T00:57:26;21.48;;;8.82;;
46745;SDS011;32493;50.514;9.678;2023-02-08T00:59:31;23.65;;;8.57;;
46745;SDS011;32493;50.514;9.678;2023-02-08T01:01:36;18.23;;;6.63;;
46745;SDS011;32493;50.514;9.678;2023-02-08T01:03:42;13.77;;;6.82;;
46745;SDS011;32493;50.514;9.678;2023-02-08T01:05:48;14.88;;;7.22;;
46745;SDS011;32493;50.514;9.678;2023-02-08T01:07:53;14.13;;;7.35;;
46745;SDS011;32493;50.514;9.678;2023-02-08T01:09:59;18.15;;;6.80;;
46745;SDS011;32493;50.514;9.678;2023-02-08T01:12:07;16.02;;;6.90;;
46745;SDS011;32493;50.514;9.678;2023-02-08T01:14:13;17.58;;;7.63;;
46745;SDS011;32493;50.514;9.678;2023-02-08T01:16:18;15.95;;;7.25;;
46745;SDS011;32493;50.514;9.678;2023-02-08T01:18:26;18.50;;;7.47;;
46745;SDS011;32493;50.514;9.678;2023-02-08T01:20:33;19.58;;;7.55;;
46745;SDS011;32493;50.514;9.678;2023-02-08T01:24:45;14.65;;;7.15;;
46745;SDS011;32493;50.514;9.678;2023-02-08T01:26:50;14.60;;;6.78;;
46745;SDS011;32493;50.514;9.678;2023-02-08T01:28:58;15.68;;;7.60;;
46745;SDS011;32493;50.514;9.678;2023-02-08T01:31:04;17.60;;;7.28;;
46745;SDS011;32493;50.514;9.678;2023-02-08T01:33:10;14.27;;;7.13;;
46745;SDS011;32493;50.514;9.678;2023-02-08T01:35:16;16.70;;;7.22;;
46745;SDS011;32493;50.514;9.678;2023-02-08T01:37:21;14.60;;;7.30;;
46745;SDS011;32493;50.514;9.678;2023-02-08T01:39:26;14.18;;;7.47;;
46745;SDS011;32493;50.514;9.678;2023-02-08T01:41:33;17.25;;;7.25;;
46745;SDS011;32493;50.514;9.678;2023-02-08T01:46:32;13.75;;;7.07;;
46745;SDS011;32493;50.514;9.678;2023-02-08T01:48:39;16.38;;;6.53;;
46745;SDS011;32493;50.514;9.678;2023-02-08T01:50:47;12.65;;;7.20;;
46745;SDS011;32493;50.514;9.678;2023-02-08T01:52:58;14.85;;;7.55;;
46745;SDS011;32493;50.514;9.678;2023-02-08T01:55:07;14.27;;;7.03;;
46745;SDS011;32493;50.514;9.678;2023-02-08T01:57:20;17.63;;;8.18;;
46745;SDS011;32493;50.514;9.678;2023-02-08T01:59:31;16.65;;;7.25;;
46745;SDS011;32493;50.514;9.678;2023-02-08T02:01:42;18.88;;;8.07;;
46745;SDS011;32493;50.514;9.678;2023-02-08T02:03:50;15.88;;;7.35;;
46745;SDS011;32493;50.514;9.678;2023-02-08T02:05:56;18.33;;;8.15;;
46745;SDS011;32493;50.514;9.678;2023-02-08T02:08:12;16.55;;;8.20;;
46745;SDS011;32493;50.514;9.678;2023-02-08T02:10:18;17.35;;;8.15;;
46745;SDS011;32493;50.514;9.678;2023-02-08T02:12:28;17.27;;;7.93;;
46745;SDS011;32493;50.514;9.678;2023-02-08T02:14:38;19.40;;;9.95;;
46745;SDS011;32493;50.514;9.678;2023-02-08T02:16:45;15.65;;;6.80;;
46745;SDS011;32493;50.514;9.678;2023-02-08T02:18:50;12.27;;;6.93;;
46745;SDS011;32493;50.514;9.678;2023-02-08T02:21:01;16.90;;;8.00;;
46745;SDS011;32493;50.514;9.678;2023-02-08T02:23:40;15.18;;;7.47;;
46745;SDS011;32493;50.514;9.678;2023-02-08T02:26:19;15.48;;;7.28;;
46745;SDS011;32493;50.514;9.678;2023-02-08T02:29:07;13.88;;;7.32;;
46745;SDS011;32493;50.514;9.678;2023-02-08T02:32:00;14.77;;;7.35;;
46745;SDS011;32493;50.514;9.678;2023-02-08T02:34:36;17.35;;;8.13;;
46745;SDS011;32493;50.514;9.678;2023-02-08T02:36:50;17.95;;;8.13;;
46745;SDS011;32493;50.514;9.678;2023-02-08T02:39:08;19.60;;;9.00;;
46745;SDS011;32493;50.514;9.678;2023-02-08T02:41:25;19.20;;;8.90;;
46745;SDS011;32493;50.514;9.678;2023-02-08T02:43:57;17.55;;;8.75;;
46745;SDS011;32493;50.514;9.678;2023-02-08T02:46:04;19.63;;;8.18;;
46745;SDS011;32493;50.514;9.678;2023-02-08T02:48:22;22.38;;;8.82;;
46745;SDS011;32493;50.514;9.678;2023-02-08T02:50:35;20.15;;;8.43;;
46745;SDS011;32493;50.514;9.678;2023-02-08T02:52:46;16.60;;;8.52;;
46745;SDS011;32493;50.514;9.678;2023-02-08T02:54:59;19.13;;;8.45;;
46745;SDS011;32493;50.514;9.678;2023-02-08T02:57:13;18.83;;;8.02;;
46745;SDS011;32493;50.514;9.678;2023-02-08T02:59:22;19.70;;;8.20;;
46745;SDS011;32493;50.514;9.678;2023-02-08T03:01:30;16.65;;;8.45;;
46745;SDS011;32493;50.514;9.678;2023-02-08T03:03:38;20.35;;;8.65;;
46745;SDS011;32493;50.514;9.678;2023-02-08T03:05:44;16.48;;;7.80;;
46745;SDS011;32493;50.514;9.678;2023-02-08T03:10:27;18.38;;;8.25;;
46745;SDS011;32493;50.514;9.678;2023-02-08T03:12:54;16.67;;;7.90;;
46745;SDS011;32493;50.514;9.678;2023-02-08T03:15:10;15.68;;;7.90;;
46745;SDS011;32493;50.514;9.678;2023-02-08T03:17:30;18.88;;;7.43;;
46745;SDS011;32493;50.514;9.678;2023-02-08T03:19:50;15.75;;;7.38;;
46745;SDS011;32493;50.514;9.678;2023-02-08T03:22:10;14.50;;;7.03;;
46745;SDS011;32493;50.514;9.678;2023-02-08T03:24:21;13.23;;;6.80;;
46745;SDS011;32493;50.514;9.678;2023-02-08T03:26:33;15.57;;;6.40;;
46745;SDS011;32493;50.514;9.678;2023-02-08T03:28:45;17.35;;;7.75;;
46745;SDS011;32493;50.514;9.678;2023-02-08T03:30:59;15.95;;;7.15;;
46745;SDS011;32493;50.514;9.678;2023-02-08T03:33:13;14.55;;;7.03;;
46745;SDS011;32493;50.514;9.678;2023-02-08T03:35:27;12.77;;;6.50;;
46745;SDS011;32493;50.514;9.678;2023-02-08T03:37:38;14.90;;;6.22;;
46745;SDS011;32493;50.514;9.678;2023-02-08T03:39:52;14.68;;;6.93;;
46745;SDS011;32493;50.514;9.678;2023-02-08T03:42:05;12.93;;;6.40;;
46745;SDS011;32493;50.514;9.678;2023-02-08T03:44:19;19.95;;;8.13;;
46745;SDS011;32493;50.514;9.678;2023-02-08T03:46:30;12.40;;;6.85;;
46745;SDS011;32493;50.514;9.678;2023-02-08T03:48:39;16.05;;;7.00;;
46745;SDS011;32493;50.514;9.678;2023-02-08T03:50:52;13.68;;;6.50;;
46745;SDS011;32493;50.514;9.678;2023-02-08T03:53:00;15.43;;;7.82;;
46745;SDS011;32493;50.514;9.678;2023-02-08T03:55:09;16.10;;;6.75;;
46745;SDS011;32493;50.514;9.678;2023-02-08T03:57:19;16.50;;;6.88;;
46745;SDS011;32493;50.514;9.678;2023-02-08T03:59:29;13.43;;;6.70;;
46745;SDS011;32493;50.514;9.678;2023-02-08T04:01:40;15.80;;;7.30;;
46745;SDS011;32493;50.514;9.678;2023-02-08T04:03:50;18.27;;;7.38;;
46745;SDS011;32493;50.514;9.678;2023-02-08T04:06:00;12.32;;;6.78;;
46745;SDS011;32493;50.514;9.678;2023-02-08T04:08:05;13.25;;;6.60;;
46745;SDS011;32493;50.514;9.678;2023-02-08T04:10:11;14.18;;;7.13;;
46745;SDS011;32493;50.514;9.678;2023-02-08T04:12:18;13.05;;;6.68;;
46745;SDS011;32493;50.514;9.678;2023-02-08T04:14:25;16.92;;;7.63;;
46745;SDS011;32493;50.514;9.678;2023-02-08T04:16:29;18.48;;;7.75;;
46745;SDS011;32493;50.514;9.678;2023-02-08T04:18:35;18.75;;;7.97;;
46745;SDS011;32493;50.514;9.678;2023-02-08T04:20:40;15.45;;;7.60;;
46745;SDS011;32493;50.514;9.678;2023-02-08T04:22:48;13.48;;;6.68;;
46745;SDS011;32493;50.514;9.678;2023-02-08T04:24:53;15.10;;;6.60;;
46745;SDS011;32493;50.514;9.678;2023-02-08T04:26:59;15.48;;;7.22;;
46745;SDS011;32493;50.514;9.678;2023-02-08T04:29:06;16.02;;;6.97;;
46745;SDS011;32493;50.514;9.678;2023-02-08T04:31:11;11.02;;;6.38;;
46745;SDS011;32493;50.514;9.678;2023-02-08T04:33:17;18.27;;;6.90;;
46745;SDS011;32493;50.514;9.678;2023-02-08T04:35:22;16.80;;;7.20;;
46745;SDS011;32493;50.514;9.678;2023-02-08T04:37:27;13.68;;;6.72;;
46745;SDS011;32493;50.514;9.678;2023-02-08T04:39:35;17.38;;;7.47;;
46745;SDS011;32493;50.514;9.678;2023-02-08T04:41:41;13.85;;;6.70;;
46745;SDS011;32493;50.514;9.678;2023-02-08T04:43:46;14.30;;;6.30;;
46745;SDS011;32493;50.514;9.678;2023-02-08T04:45:51;15.70;;;6.72;;
46745;SDS011;32493;50.514;9.678;2023-02-08T04:47:56;15.88;;;6.97;;
46745;SDS011;32493;50.514;9.678;2023-02-08T04:50:05;14.05;;;7.50;;
46745;SDS011;32493;50.514;9.678;2023-02-08T04:52:10;17.08;;;7.63;;
46745;SDS011;32493;50.514;9.678;2023-02-08T04:54:15;21.95;;;10.00;;
46745;SDS011;32493;50.514;9.678;2023-02-08T04:56:23;19.40;;;8.10;;
46745;SDS011;32493;50.514;9.678;2023-02-08T04:58:29;16.88;;;8.07;;
46745;SDS011;32493;50.514;9.678;2023-02-08T05:00:34;17.23;;;7.53;;
46745;SDS011;32493;50.514;9.678;2023-02-08T05:02:40;19.58;;;8.07;;
46745;SDS011;32493;50.514;9.678;2023-02-08T05:04:45;18.30;;;8.13;;
46745;SDS011;32493;50.514;9.678;2023-02-08T05:06:50;18.92;;;8.48;;
46745;SDS011;32493;50.514;9.678;2023-02-08T05:08:57;18.80;;;8.30;;
46745;SDS011;32493;50.514;9.678;2023-02-08T05:11:03;17.77;;;8.70;;
46745;SDS011;32493;50.514;9.678;2023-02-08T05:13:11;19.80;;;9.48;;
46745;SDS011;32493;50.514;9.678;2023-02-08T05:15:16;19.40;;;9.05;;
46745;SDS011;32493;50.514;9.678;2023-02-08T05:17:21;19.95;;;8.57;;
46745;SDS011;32493;50.514;9.678;2023-02-08T05:19:27;19.23;;;8.95;;
46745;SDS011;32493;50.514;9.678;2023-02-08T05:21:32;20.35;;;8.38;;
46745;SDS011;32493;50.514;9.678;2023-02-08T05:23:38;16.48;;;7.80;;
46745;SDS011;32493;50.514;9.678;2023-02-08T05:25:47;18.25;;;7.15;;
46745;SDS011;32493;50.514;9.678;2023-02-08T05:27:52;17.25;;;6.43;;
46745;SDS011;32493;50.514;9.678;2023-02-08T05:30:00;16.33;;;7.22;;
46745;SDS011;32493;50.514;9.678;2023-02-08T05:32:07;14.15;;;6.43;;
46745;SDS011;32493;50.514;9.678;2023-02-08T05:34:13;16.08;;;6.30;;
46745;SDS011;32493;50.514;9.678;2023-02-08T05:36:19;15.18;;;6.53;;
46745;SDS011;32493;50.514;9.678;2023-02-08T05:38:25;13.90;;;6.43;;
46745;SDS011;32493;50.514;9.678;2023-02-08T05:40:30;17.60;;;8.23;;
46745;SDS011;32493;50.514;9.678;2023-02-08T05:42:36;16.30;;;7.50;;
46745;SDS011;32493;50.514;9.678;2023-02-08T05:44:43;16.63;;;8.38;;
46745;SDS011;32493;50.514;9.678;2023-02-08T05:46:50;17.80;;;8.20;;
46745;SDS011;32493;50.514;9.678;2023-02-08T05:48:55;17.60;;;7.07;;
46745;SDS011;32493;50.514;9.678;2023-02-08T05:51:01;18.05;;;7.85;;
46745;SDS011;32493;50.514;9.678;2023-02-08T05:53:06;17.60;;;8.43;;
46745;SDS011;32493;50.514;9.678;2023-02-08T05:55:12;18.88;;;8.13;;
46745;SDS011;32493;50.514;9.678;2023-02-08T05:57:18;16.77;;;7.68;;
46745;SDS011;32493;50.514;9.678;2023-02-08T05:59:23;18.27;;;8.52;;
46745;SDS011;32493;50.514;9.678;2023-02-08T06:01:28;20.00;;;8.38;;
46745;SDS011;32493;50.514;9.678;2023-02-08T06:03:38;20.13;;;9.75;;
46745;SDS011;32493;50.514;9.678;2023-02-08T06:05:44;20.70;;;8.65;;
46745;SDS011;32493;50.514;9.678;2023-02-08T06:07:50;20.33;;;8.25;;
46745;SDS011;32493;50.514;9.678;2023-02-08T06:09:55;19.67;;;8.63;;
46745;SDS011;32493;50.514;9.678;2023-02-08T06:12:01;17.38;;;8.65;;
46745;SDS011;32493;50.514;9.678;2023-02-08T06:14:06;24.95;;;8.85;;
46745;SDS011;32493;50.514;9.678;2023-02-08T06:16:11;18.90;;;8.00;;
46745;SDS011;32493;50.514;9.678;2023-02-08T06:18:15;21.48;;;8.30;;
46745;SDS011;32493;50.514;9.678;2023-02-08T06:20:24;17.35;;;8.05;;
46745;SDS011;32493;50.514;9.678;2023-02-08T06:22:29;18.27;;;7.95;;
46745;SDS011;32493;50.514;9.678;2023-02-08T06:24:36;18.92;;;8.43;;
46745;SDS011;32493;50.514;9.678;2023-02-08T06:26:42;20.20;;;7.68;;
46745;SDS011;32493;50.514;9.678;2023-02-08T06:28:47;17.95;;;8.27;;
46745;SDS011;32493;50.514;9.678;2023-02-08T06:30:52;20.05;;;9.45;;
46745;SDS011;32493;50.514;9.678;2023-02-08T06:32:58;18.27;;;9.30;;
46745;SDS011;32493;50.514;9.678;2023-02-08T06:35:04;24.90;;;10.35;;
46745;SDS011;32493;50.514;9.678;2023-02-08T06:37:13;28.80;;;11.32;;
46745;SDS011;32493;50.514;9.678;2023-02-08T06:39:18;36.00;;;14.25;;
46745;SDS011;32493;50.514;9.678;2023-02-08T06:41:23;34.35;;;13.25;;
46745;SDS011;32493;50.514;9.678;2023-02-08T06:43:29;26.63;;;11.65;;
46745;SDS011;32493;50.514;9.678;2023-02-08T06:45:34;30.58;;;11.73;;
46745;SDS011;32493;50.514;9.678;2023-02-08T06:47:40;27.42;;;11.30;;
46745;SDS011;32493;50.514;9.678;2023-02-08T06:49:45;26.35;;;11.00;;
46745;SDS011;32493;50.514;9.678;2023-02-08T06:51:50;28.23;;;12.43;;
46745;SDS011;32493;50.514;9.678;2023-02-08T06:53:59;34.95;;;15.88;;
46745;SDS011;32493;50.514;9.678;2023-02-08T06:58:10;31.30;;;12.80;;
46745;SDS011;32493;50.514;9.678;2023-02-08T07:00:17;29.38;;;12.77;;
46745;SDS011;32493;50.514;9.678;2023-02-08T07:02:24;29.88;;;13.70;;
46745;SDS011;32493;50.514;9.678;2023-02-08T07:04:29;31.83;;;13.13;;
46745;SDS011;32493;50.514;9.678;2023-02-08T07:06:35;24.70;;;10.57;;
46745;SDS011;32493;50.514;9.678;2023-02-08T07:08:41;24.27;;;10.93;;
46745;SDS011;32493;50.514;9.678;2023-02-08T07:10:49;30.42;;;13.15;;
46745;SDS011;32493;50.514;9.678;2023-02-08T07:12:57;30.77;;;13.90;;
46745;SDS011;32493;50.514;9.678;2023-02-08T07:15:02;54.03;;;22.00;;
46745;SDS011;32493;50.514;9.678;2023-02-08T07:17:07;29.60;;;13.93;;
46745;SDS011;32493;50.514;9.678;2023-02-08T07:19:13;24.50;;;11.52;;
46745;SDS011;32493;50.514;9.678;2023-02-08T07:21:18;23.30;;;10.20;;
46745;SDS011;32493;50.514;9.678;2023-02-08T07:23:24;22.88;;;10.50;;
46745;SDS011;32493;50.514;9.678;2023-02-08T07:25:30;24.58;;;11.07;;
46745;SDS011;32493;50.514;9.678;2023-02-08T07:27:37;29.10;;;12.02;;
46745;SDS011;32493;50.514;9.678;2023-02-08T07:29:42;26.85;;;12.50;;
46745;SDS011;32493;50.514;9.678;2023-02-08T07:31:47;23.02;;;11.30;;
46745;SDS011;32493;50.514;9.678;2023-02-08T07:33:52;24.45;;;10.05;;
46745;SDS011;32493;50.514;9.678;2023-02-08T07:35:58;23.45;;;10.45;;
46745;SDS011;32493;50.514;9.678;2023-02-08T07:38:05;25.88;;;11.35;;
46745;SDS011;32493;50.514;9.678;2023-02-08T07:40:11;25.55;;;11.70;;
46745;SDS011;32493;50.514;9.678;2023-02-08T07:42:17;28.35;;;13.38;;
46745;SDS011;32493;50.514;9.678;2023-02-08T07:46:42;27.85;;;12.27;;
46745;SDS011;32493;50.514;9.678;2023-02-08T07:48:47;25.70;;;12.23;;
46745;SDS011;32493;50.514;9.678;2023-02-08T07:50:53;32.70;;;12.02;;
46745;SDS011;32493;50.514;9.678;2023-02-08T07:52:59;31.60;;;12.52;;
46745;SDS011;32493;50.514;9.678;2023-02-08T07:55:05;24.63;;;12.20;;
46745;SDS011;32493;50.514;9.678;2023-02-08T07:57:12;29.05;;;13.13;;
46745;SDS011;32493;50.514;9.678;2023-02-08T07:59:22;27.38;;;13.63;;
46745;SDS011;32493;50.514;9.678;2023-02-08T08:01:31;30.80;;;13.82;;
46745;SDS011;32493;50.514;9.678;2023-02-08T08:03:36;31.90;;;14.23;;
46745;SDS011;32493;50.514;9.678;2023-02-08T08:05:42;37.90;;;16.13;;
46745;SDS011;32493;50.514;9.678;2023-02-08T08:07:48;38.10;;;18.98;;
46745;SDS011;32493;50.514;9.678;2023-02-08T08:09:53;38.88;;;18.33;;
46745;SDS011;32493;50.514;9.678;2023-02-08T08:11:59;38.08;;;16.80;;
46745;SDS011;32493;50.514;9.678;2023-02-08T08:14:06;41.15;;;17.92;;
46745;SDS011;32493;50.514;9.678;2023-02-08T08:16:11;41.42;;;18.25;;
46745;SDS011;32493;50.514;9.678;2023-02-08T08:18:19;37.35;;;15.32;;
46745;SDS011;32493;50.514;9.678;2023-02-08T08:20:25;37.63;;;16.73;;
46745;SDS011;32493;50.514;9.678;2023-02-08T08:22:31;36.55;;;17.27;;
46745;SDS011;32493;50.514;9.678;2023-02-08T08:24:37;42.55;;;17.00;;
46745;SDS011;32493;50.514;9.678;2023-02-08T08:26:42;31.38;;;15.10;;
46745;SDS011;32493;50.514;9.678;2023-02-08T08:28:48;32.72;;;15.63;;
46745;SDS011;32493;50.514;9.678;2023-02-08T08:30:53;39.45;;;16.13;;
46745;SDS011;32493;50.514;9.678;2023-02-08T08:32:58;38.60;;;16.67;;
46745;SDS011;32493;50.514;9.678;2023-02-08T08:35:07;33.03;;;14.38;;
46745;SDS011;32493;50.514;9.678;2023-02-08T08:37:12;32.78;;;14.57;;
46745;SDS011;32493;50.514;9.678;2023-02-08T08:39:17;35.50;;;15.77;;
46745;SDS011;32493;50.514;9.678;2023-02-08T08:41:22;37.08;;;16.02;;
46745;SDS011;32493;50.514;9.678;2023-02-08T08:43:28;35.55;;;15.43;;
46745;SDS011;32493;50.514;9.678;2023-02-08T08:45:33;32.97;;;15.45;;
46745;SDS011;32493;50.514;9.678;2023-02-08T08:47:38;34.95;;;15.18;;
46745;SDS011;32493;50.514;9.678;2023-02-08T08:49:44;42.50;;;16.15;;
46745;SDS011;32493;50.514;9.678;2023-02-08T08:51:51;36.45;;;16.60;;
46745;SDS011;32493;50.514;9.678;2023-02-08T08:53:57;49.17;;;18.70;;
46745;SDS011;32493;50.514;9.678;2023-02-08T08:56:02;38.92;;;17.35;;
46745;SDS011;32493;50.514;9.678;2023-02-08T08:58:08;47.78;;;19.75;;
46745;SDS011;32493;50.514;9.678;2023-02-08T09:00:13;40.10;;;17.10;;
46745;SDS011;32493;50.514;9.678;2023-02-08T09:02:19;43.35;;;18.58;;
46745;SDS011;32493;50.514;9.678;2023-02-08T09:04:25;56.75;;;22.33;;
46745;SDS011;32493;50.514;9.678;2023-02-08T09:06:31;57.42;;;22.73;;
46745;SDS011;32493;50.514;9.678;2023-02-08T09:08:39;43.53;;;18.85;;
46745;SDS011;32493;50.514;9.678;2023-02-08T09:10:44;44.70;;;18.33;;
46745;SDS011;32493;50.514;9.678;2023-02-08T09:12:49;54.80;;;19.70;;
46745;SDS011;32493;50.514;9.678;2023-02-08T09:14:56;60.22;;;22.25;;
46745;SDS011;32493;50.514;9.678;2023-02-08T09:17:01;65.05;;;24.30;;
46745;SDS011;32493;50.514;9.678;2023-02-08T09:19:07;55.65;;;21.95;;
46745;SDS011;32493;50.514;9.678;2023-02-08T09:21:14;46.22;;;17.50;;
46745;SDS011;32493;50.514;9.678;2023-02-08T09:23:22;45.47;;;17.88;;
46745;SDS011;32493;50.514;9.678;2023-02-08T09:25:29;61.30;;;24.15;;
46745;SDS011;32493;50.514;9.678;2023-02-08T09:27:35;57.15;;;22.45;;
46745;SDS011;32493;50.514;9.678;2023-02-08T09:29:40;40.95;;;17.42;;
46745;SDS011;32493;50.514;9.678;2023-02-08T09:31:46;39.05;;;16.90;;
46745;SDS011;32493;50.514;9.678;2023-02-08T09:33:51;39.53;;;16.40;;
46745;SDS011;32493;50.514;9.678;2023-02-08T09:35:59;37.95;;;16.50;;
46745;SDS011;32493;50.514;9.678;2023-02-08T09:38:07;39.38;;;17.05;;
46745;SDS011;32493;50.514;9.678;2023-02-08T09:40:14;36.92;;;17.45;;
46745;SDS011;32493;50.514;9.678;2023-02-08T09:42:31;44.10;;;19.08;;
46745;SDS011;32493;50.514;9.678;2023-02-08T09:44:45;37.20;;;17.25;;
46745;SDS011;32493;50.514;9.678;2023-02-08T09:47:08;35.15;;;17.17;;
46745;SDS011;32493;50.514;9.678;2023-02-08T09:49:21;34.85;;;16.10;;
46745;SDS011;32493;50.514;9.678;2023-02-08T09:51:31;36.58;;;16.10;;
46745;SDS011;32493;50.514;9.678;2023-02-08T09:53:44;37.45;;;16.33;;
46745;SDS011;32493;50.514;9.678;2023-02-08T09:55:54;59.25;;;21.60;;
46745;SDS011;32493;50.514;9.678;2023-02-08T09:58:06;36.45;;;16.10;;
46745;SDS011;32493;50.514;9.678;2023-02-08T10:00:29;35.72;;;17.15;;
46745;SDS011;32493;50.514;9.678;2023-02-08T10:02:38;37.05;;;15.93;;
46745;SDS011;32493;50.514;9.678;2023-02-08T10:04:51;34.85;;;15.32;;
46745;SDS011;32493;50.514;9.678;2023-02-08T10:07:03;36.17;;;16.15;;
46745;SDS011;32493;50.514;9.678;2023-02-08T10:09:09;48.85;;;20.55;;
46745;SDS011;32493;50.514;9.678;2023-02-08T10:11:34;54.25;;;21.38;;
46745;SDS011;32493;50.514;9.678;2023-02-08T10:13:59;37.15;;;15.30;;
46745;SDS011;32493;50.514;9.678;2023-02-08T10:16:24;53.30;;;20.55;;
46745;SDS011;32493;50.514;9.678;2023-02-08T10:18:45;42.20;;;18.35;;
46745;SDS011;32493;50.514;9.678;2023-02-08T10:21:02;38.85;;;16.73;;
46745;SDS011;32493;50.514;9.678;2023-02-08T10:23:39;31.67;;;15.70;;
46745;SDS011;32493;50.514;9.678;2023-02-08T10:26:05;40.80;;;16.42;;
46745;SDS011;32493;50.514;9.678;2023-02-08T10:28:25;31.13;;;13.80;;
46745;SDS011;32493;50.514;9.678;2023-02-08T10:30:53;26.10;;;12.90;;
46745;SDS011;32493;50.514;9.678;2023-02-08T10:33:08;34.17;;;15.02;;
46745;SDS011;32493;50.514;9.678;2023-02-08T10:35:24;33.80;;;12.90;;
46745;SDS011;32493;50.514;9.678;2023-02-08T10:37:36;33.97;;;15.50;;
46745;SDS011;32493;50.514;9.678;2023-02-08T10:39:44;27.55;;;13.20;;
46745;SDS011;32493;50.514;9.678;2023-02-08T10:41:51;27.48;;;13.32;;
46745;SDS011;32493;50.514;9.678;2023-02-08T10:43:59;30.05;;;13.45;;
46745;SDS011;32493;50.514;9.678;2023-02-08T10:46:14;28.63;;;13.55;;
46745;SDS011;32493;50.514;9.678;2023-02-08T10:48:30;31.23;;;14.93;;
46745;SDS011;32493;50.514;9.678;2023-02-08T10:50:47;27.30;;;13.93;;
46745;SDS011;32493;50.514;9.678;2023-02-08T10:52:52;28.27;;;14.43;;
46745;SDS011;32493;50.514;9.678;2023-02-08T10:54:57;30.70;;;13.77;;
46745;SDS011;32493;50.514;9.678;2023-02-08T10:57:03;28.55;;;13.55;;
46745;SDS011;32493;50.514;9.678;2023-02-08T10:59:18;25.65;;;12.88;;
46745;SDS011;32493;50.514;9.678;2023-02-08T11:01:31;33.35;;;14.32;;
46745;SDS011;32493;50.514;9.678;2023-02-08T11:03:36;29.17;;;15.18;;
46745;SDS011;32493;50.514;9.678;2023-02-08T11:05:41;28.88;;;13.90;;
46745;SDS011;32493;50.514;9.678;2023-02-08T11:07:46;27.50;;;13.40;;
46745;SDS011;32493;50.514;9.678;2023-02-08T11:09:51;28.33;;;14.32;;
46745;SDS011;32493;50.514;9.678;2023-02-08T11:11:56;32.75;;;14.88;;
46745;SDS011;32493;50.514;9.678;2023-02-08T11:14:06;25.63;;;12.80;;
46745;SDS011;32493;50.514;9.678;2023-02-08T11:16:19;28.35;;;13.57;;
46745;SDS011;32493;50.514;9.678;2023-02-08T11:18:29;27.88;;;13.20;;
46745;SDS011;32493;50.514;9.678;2023-02-08T11:20:38;26.27;;;12.25;;
46745;SDS011;32493;50.514;9.678;2023-02-08T11:22:43;28.27;;;11.70;;
46745;SDS011;32493;50.514;9.678;2023-02-08T11:24:53;28.23;;;12.63;;
46745;SDS011;32493;50.514;9.678;2023-02-08T11:27:01;21.90;;;10.80;;
46745;SDS011;32493;50.514;9.678;2023-02-08T11:29:18;26.42;;;12.18;;
46745;SDS011;32493;50.514;9.678;2023-02-08T11:31:25;23.85;;;11.43;;
46745;SDS011;32493;50.514;9.678;2023-02-08T11:33:35;23.77;;;11.82;;
46745;SDS011;32493;50.514;9.678;2023-02-08T11:35:40;27.15;;;12.40;;
46745;SDS011;32493;50.514;9.678;2023-02-08T11:37:45;24.70;;;12.63;;
46745;SDS011;32493;50.514;9.678;2023-02-08T11:39:52;26.40;;;12.00;;
46745;SDS011;32493;50.514;9.678;2023-02-08T11:41:59;27.23;;;13.18;;
46745;SDS011;32493;50.514;9.678;2023-02-08T11:44:07;25.42;;;12.10;;
46745;SDS011;32493;50.514;9.678;2023-02-08T11:46:21;24.05;;;11.93;;
46745;SDS011;32493;50.514;9.678;2023-02-08T11:48:34;28.15;;;12.02;;
46745;SDS011;32493;50.514;9.678;2023-02-08T11:50:52;24.08;;;11.30;;
46745;SDS011;32493;50.514;9.678;2023-02-08T11:53:01;24.58;;;11.13;;
46745;SDS011;32493;50.514;9.678;2023-02-08T11:55:12;29.20;;;11.43;;
46745;SDS011;32493;50.514;9.678;2023-02-08T11:57:27;22.33;;;10.43;;
46745;SDS011;32493;50.514;9.678;2023-02-08T11:59:33;30.02;;;11.00;;
46745;SDS011;32493;50.514;9.678;2023-02-08T12:01:38;20.00;;;9.35;;
46745;SDS011;32493;50.514;9.678;2023-02-08T12:03:48;19.43;;;10.23;;
46745;SDS011;32493;50.514;9.678;2023-02-08T12:06:05;17.25;;;7.78;;
46745;SDS011;32493;50.514;9.678;2023-02-08T12:08:26;21.95;;;9.15;;
46745;SDS011;32493;50.514;9.678;2023-02-08T12:13:30;19.67;;;8.65;;
46745;SDS011;32493;50.514;9.678;2023-02-08T12:16:20;24.00;;;6.55;;
46745;SDS011;32493;50.514;9.678;2023-02-08T12:18:57;15.95;;;6.47;;
46745;SDS011;32493;50.514;9.678;2023-02-08T12:21:23;11.65;;;5.88;;
46745;SDS011;32493;50.514;9.678;2023-02-08T12:23:41;9.45;;;4.95;;
46745;SDS011;32493;50.514;9.678;2023-02-08T12:25:55;8.75;;;3.97;;
46745;SDS011;32493;50.514;9.678;2023-02-08T12:28:13;7.38;;;3.95;;
46745;SDS011;32493;50.514;9.678;2023-02-08T12:30:27;8.98;;;4.53;;
46745;SDS011;32493;50.514;9.678;2023-02-08T12:32:40;8.73;;;3.95;;
46745;SDS011;32493;50.514;9.678;2023-02-08T12:35:16;7.07;;;3.40;;
46745;SDS011;32493;50.514;9.678;2023-02-08T12:38:06;8.98;;;4.15;;
46745;SDS011;32493;50.514;9.678;2023-02-08T12:40:38;9.82;;;4.30;;
46745;SDS011;32493;50.514;9.678;2023-02-08T12:42:57;9.93;;;4.38;;
46745;SDS011;32493;50.514;9.678;2023-02-08T12:45:19;10.63;;;5.22;;
46745;SDS011;32493;50.514;9.678;2023-02-08T12:47:58;7.88;;;3.72;;
46745;SDS011;32493;50.514;9.678;2023-02-08T12:50:12;6.60;;;3.80;;
46745;SDS011;32493;50.514;9.678;2023-02-08T12:52:33;7.43;;;3.90;;
46745;SDS011;32493;50.514;9.678;2023-02-08T12:54:43;6.85;;;3.58;;
46745;SDS011;32493;50.514;9.678;2023-02-08T12:56:53;5.38;;;3.03;;
46745;SDS011;32493;50.514;9.678;2023-02-08T12:59:03;5.47;;;3.22;;